sensor_id;sensor_type;location;lat;lon;timestamp;pressure;altitude;pressure_sealevel;temperature;humidity
38939;BME280;24211;49.980;19.776;2023-04-01T00:00:10;97598.31;;;11.11;100.00
38939;BME280;24211;49.980;19.776;2023-04-01T00:02:58;97592.19;;;11.10;100.00
38939;BME280;24211;49.980;19.776;2023-04-01T00:05:26;97594.31;;;11.08;100.00
38939;BME280;24211;49.980;19.776;2023-04-01T00:07:53;97589.75;;;11.09;100.00
38939;BME280;24211;49.980;19.776;2023-04-01T00:10:21;97591.63;;;11.08;100.00
38939;BME280;24211;49.980;19.776;2023-04-01T00:12:48;97587.09;;;11.14;100.00
38939;BME280;24211;49.980;19.776;2023-04-01T00:15:15;97588.69;;;11.15;100.00
38939;BME280;24211;49.980;19.776;2023-04-01T00:17:42;97584.94;;;11.16;100.00
38939;BME280;24211;49.980;19.776;2023-04-01T00:20:11;97579.59;;;11.16;100.00
38939;BME280;24211;49.980;19.776;2023-04-01T00:22:39;97581.22;;;11.12;100.00
38939;BME280;24211;49.980;19.776;2023-04-01T00:25:07;97578.00;;;11.15;100.00
38939;BME280;24211;49.980;19.776;2023-04-01T00:27:34;97567.31;;;11.15;100.00
38939;BME280;24211;49.980;19.776;2023-04-01T00:30:02;97564.09;;;11.13;100.00
38939;BME280;24211;49.980;19.776;2023-04-01T00:32:30;97569.44;;;11.13;100.00
38939;BME280;24211;49.980;19.776;2023-04-01T00:34:58;97561.97;;;11.10;100.00
38939;BME280;24211;49.980;19.776;2023-04-01T00:37:27;97559.31;;;11.10;100.00
38939;BME280;24211;49.980;19.776;2023-04-01T00:39:56;97565.19;;;11.07;100.00
38939;BME280;24211;49.980;19.776;2023-04-01T00:42:23;97559.31;;;11.10;100.00
38939;BME280;24211;49.980;19.776;2023-04-01T00:44:53;97573.19;;;11.12;100.00
38939;BME280;24211;49.980;19.776;2023-04-01T00:47:23;97568.66;;;11.07;100.00
38939;BME280;24211;49.980;19.776;2023-04-01T00:49:54;97567.31;;;11.10;100.00
38939;BME280;24211;49.980;19.776;2023-04-01T00:52:25;97566.22;;;11.11;100.00
38939;BME280;24211;49.980;19.776;2023-04-01T00:54:58;97565.19;;;11.07;100.00
38939;BME280;24211;49.980;19.776;2023-04-01T00:57:35;97567.03;;;11.06;100.00
38939;BME280;24211;49.980;19.776;2023-04-01T01:00:09;97556.09;;;11.03;100.00
38939;BME280;24211;49.980;19.776;2023-04-01T01:02:41;97559.03;;;11.01;100.00
38939;BME280;24211;49.980;19.776;2023-04-01T01:05:15;97555.03;;;10.99;100.00
38939;BME280;24211;49.980;19.776;2023-04-01T01:08:05;97568.16;;;10.95;100.00
38939;BME280;24211;49.980;19.776;2023-04-01T01:10:38;97564.66;;;10.95;100.00
38939;BME280;24211;49.980;19.776;2023-04-01T01:16:27;97574.31;;;10.91;100.00
38939;BME280;24211;49.980;19.776;2023-04-01T01:19:29;97570.00;;;10.90;100.00
38939;BME280;24211;49.980;19.776;2023-04-01T01:24:58;97566.28;;;10.91;100.00
38939;BME280;24211;49.980;19.776;2023-04-01T01:27:32;97564.66;;;10.90;100.00
38939;BME280;24211;49.980;19.776;2023-04-01T01:36:32;97576.97;;;10.91;100.00
38939;BME280;24211;49.980;19.776;2023-04-01T01:39:07;97578.31;;;10.88;100.00
38939;BME280;24211;49.980;19.776;2023-04-01T01:41:39;97576.41;;;10.84;100.00
38939;BME280;24211;49.980;19.776;2023-04-01T01:44:11;97580.97;;;10.83;100.00
38939;BME280;24211;49.980;19.776;2023-04-01T01:46:41;97580.72;;;10.80;100.00
38939;BME280;24211;49.980;19.776;2023-04-01T01:49:11;97583.66;;;10.78;100.00
38939;BME280;24211;49.980;19.776;2023-04-01T01:51:39;97580.44;;;10.76;100.00
38939;BME280;24211;49.980;19.776;2023-04-01T01:54:17;97581.75;;;10.79;100.00
38939;BME280;24211;49.980;19.776;2023-04-01T01:56:50;97578.84;;;10.75;100.00
38939;BME280;24211;49.980;19.776;2023-04-01T01:59:22;97585.00;;;10.76;100.00
38939;BME280;24211;49.980;19.776;2023-04-01T02:01:56;97573.22;;;10.77;100.00
38939;BME280;24211;49.980;19.776;2023-04-01T02:04:26;97581.75;;;10.74;100.00
38939;BME280;24211;49.980;19.776;2023-04-01T02:07:03;97576.97;;;10.71;100.00
38939;BME280;24211;49.980;19.776;2023-04-01T02:09:33;97582.56;;;10.64;100.00
38939;BME280;24211;49.980;19.776;2023-04-01T02:12:07;97583.91;;;10.62;100.00
38939;BME280;24211;49.980;19.776;2023-04-01T02:15:08;97586.84;;;10.60;100.00
38939;BME280;24211;49.980;19.776;2023-04-01T02:17:43;97584.47;;;10.59;100.00
38939;BME280;24211;49.980;19.776;2023-04-01T02:20:21;97579.63;;;10.56;100.00
38939;BME280;24211;49.980;19.776;2023-04-01T02:22:53;97581.78;;;10.59;100.00
38939;BME280;24211;49.980;19.776;2023-04-01T02:25:24;97586.03;;;10.55;100.00
38939;BME280;24211;49.980;19.776;2023-04-01T02:27:54;97594.59;;;10.52;100.00
38939;BME280;24211;49.980;19.776;2023-04-01T02:30:27;97592.97;;;10.50;100.00
38939;BME280;24211;49.980;19.776;2023-04-01T02:32:58;97602.06;;;10.49;100.00
38939;BME280;24211;49.980;19.776;2023-04-01T02:35:26;97603.13;;;10.48;100.00
38939;BME280;24211;49.980;19.776;2023-04-01T02:37:55;97609.53;;;10.47;100.00
38939;BME280;24211;49.980;19.776;2023-04-01T02:40:23;97622.34;;;10.45;100.00
38939;BME280;24211;49.980;19.776;2023-04-01T02:42:50;97615.41;;;10.44;100.00
38939;BME280;24211;49.980;19.776;2023-04-01T02:45:18;97621.81;;;10.43;100.00
38939;BME280;24211;49.980;19.776;2023-04-01T02:47:45;97622.88;;;10.42;100.00
38939;BME280;24211;49.980;19.776;2023-04-01T02:50:12;97626.09;;;10.44;100.00
38939;BME280;24211;49.980;19.776;2023-04-01T02:52:39;97626.88;;;10.45;100.00
38939;BME280;24211;49.980;19.776;2023-04-01T02:55:08;97627.16;;;10.43;100.00
38939;BME280;24211;49.980;19.776;2023-04-01T02:57:35;97628.22;;;10.42;100.00
38939;BME280;24211;49.980;19.776;2023-04-01T03:00:03;97626.63;;;10.41;100.00
38939;BME280;24211;49.980;19.776;2023-04-01T03:02:31;97629.31;;;10.41;100.00
38939;BME280;24211;49.980;19.776;2023-04-01T03:04:58;97631.97;;;10.41;100.00
38939;BME280;24211;49.980;19.776;2023-04-01T03:07:25;97628.22;;;10.42;100.00
38939;BME280;24211;49.980;19.776;2023-04-01T03:09:53;97626.63;;;10.41;100.00
38939;BME280;24211;49.980;19.776;2023-04-01T03:12:20;97626.06;;;10.39;100.00
38939;BME280;24211;49.980;19.776;2023-04-01T03:14:50;97622.88;;;10.37;100.00
38939;BME280;24211;49.980;19.776;2023-04-01T03:17:17;97628.22;;;10.37;100.00
38939;BME280;24211;49.980;19.776;2023-04-01T03:19:45;97625.53;;;10.37;100.00
38939;BME280;24211;49.980;19.776;2023-04-01T03:22:13;97625.81;;;10.36;100.00
38939;BME280;24211;49.980;19.776;2023-04-01T03:24:40;97617.00;;;10.35;100.00
38939;BME280;24211;49.980;19.776;2023-04-01T03:27:08;97611.66;;;10.35;100.00
38939;BME280;24211;49.980;19.776;2023-04-01T03:29:35;97608.44;;;10.33;100.00
38939;BME280;24211;49.980;19.776;2023-04-01T03:32:02;97617.81;;;10.36;100.00
38939;BME280;24211;49.980;19.776;2023-04-01T03:34:30;97617.81;;;10.36;100.00
38939;BME280;24211;49.980;19.776;2023-04-01T03:36:58;97616.72;;;10.37;100.00
38939;BME280;24211;49.980;19.776;2023-04-01T03:39:25;97619.16;;;10.38;100.00
38939;BME280;24211;49.980;19.776;2023-04-01T03:41:54;97621.81;;;10.38;100.00
38939;BME280;24211;49.980;19.776;2023-04-01T03:44:22;97624.47;;;10.38;100.00
38939;BME280;24211;49.980;19.776;2023-04-01T03:46:52;97620.72;;;10.39;100.00
38939;BME280;24211;49.980;19.776;2023-04-01T03:49:20;97620.72;;;10.39;100.00
38939;BME280;24211;49.980;19.776;2023-04-01T03:51:47;97613.81;;;10.38;100.00
38939;BME280;24211;49.980;19.776;2023-04-01T03:54:14;97615.66;;;10.38;100.00
38939;BME280;24211;49.980;19.776;2023-04-01T03:56:43;97620.72;;;10.39;100.00
38939;BME280;24211;49.980;19.776;2023-04-01T03:59:11;97623.41;;;10.39;100.00
38939;BME280;24211;49.980;19.776;2023-04-01T04:01:39;97624.22;;;10.40;100.00
38939;BME280;24211;49.980;19.776;2023-04-01T04:04:10;97626.63;;;10.41;100.00
38939;BME280;24211;49.980;19.776;2023-04-01T04:06:38;97625.00;;;10.40;100.00
38939;BME280;24211;49.980;19.776;2023-04-01T04:09:06;97628.75;;;10.39;100.00
38939;BME280;24211;49.980;19.776;2023-04-01T04:11:34;97630.34;;;10.35;100.00
38939;BME280;24211;49.980;19.776;2023-04-01T04:14:02;97622.84;;;10.32;100.00
38939;BME280;24211;49.980;19.776;2023-04-01T04:16:30;97634.09;;;10.29;100.00
38939;BME280;24211;49.980;19.776;2023-04-01T04:19:01;97641.53;;;10.27;100.00
38939;BME280;24211;49.980;19.776;2023-04-01T04:21:28;97634.09;;;10.29;100.00
38939;BME280;24211;49.980;19.776;2023-04-01T04:23:55;97634.09;;;10.29;100.00
38939;BME280;24211;49.980;19.776;2023-04-01T04:26:23;97638.09;;;10.27;100.00
38939;BME280;24211;49.980;19.776;2023-04-01T04:28:58;97645.28;;;10.26;100.00
38939;BME280;24211;49.980;19.776;2023-04-01T04:31:27;97636.19;;;10.27;100.00
38939;BME280;24211;49.980;19.776;2023-04-01T04:33:59;97640.47;;;10.28;100.00
38939;BME280;24211;49.980;19.776;2023-04-01T04:36:31;97645.28;;;10.26;100.00
38939;BME280;24211;49.980;19.776;2023-04-01T04:38:58;97648.50;;;10.28;100.00
38939;BME280;24211;49.980;19.776;2023-04-01T04:41:28;97646.88;;;10.27;100.00
38939;BME280;24211;49.980;19.776;2023-04-01T04:43:56;97645.28;;;10.26;100.00
38939;BME280;24211;49.980;19.776;2023-04-01T04:46:25;97640.75;;;10.27;100.00
38939;BME280;24211;49.980;19.776;2023-04-01T04:48:59;97640.47;;;10.28;100.00
38939;BME280;24211;49.980;19.776;2023-04-01T04:51:26;97649.53;;;10.27;100.00
38939;BME280;24211;49.980;19.776;2023-04-01T04:53:54;97644.19;;;10.27;100.00
38939;BME280;24211;49.980;19.776;2023-04-01T04:56:32;97646.88;;;10.27;100.00
38939;BME280;24211;49.980;19.776;2023-04-01T04:59:05;97641.53;;;10.27;100.00
38939;BME280;24211;49.980;19.776;2023-04-01T05:01:48;97646.88;;;10.27;100.00
38939;BME280;24211;49.980;19.776;2023-04-01T05:04:17;97653.81;;;10.23;100.00
38939;BME280;24211;49.980;19.776;2023-04-01T05:06:44;97654.84;;;10.17;100.00
38939;BME280;24211;49.980;19.776;2023-04-01T05:09:12;97650.06;;;10.19;100.00
38939;BME280;24211;49.980;19.776;2023-04-01T05:11:40;97653.28;;;10.26;100.00
38939;BME280;24211;49.980;19.776;2023-04-01T05:14:15;97655.44;;;10.29;100.00
38939;BME280;24211;49.980;19.776;2023-04-01T05:16:51;97646.88;;;10.32;100.00
38939;BME280;24211;49.980;19.776;2023-04-01T05:19:19;97651.16;;;10.33;100.00
38939;BME280;24211;49.980;19.776;2023-04-01T05:21:47;97648.22;;;10.35;100.00
38939;BME280;24211;49.980;19.776;2023-04-01T05:24:15;97642.09;;;10.39;100.00
38939;BME280;24211;49.980;19.776;2023-04-01T05:26:44;97645.84;;;10.43;100.00
38939;BME280;24211;49.980;19.776;2023-04-01T05:29:11;97643.19;;;10.48;100.00
38939;BME280;24211;49.980;19.776;2023-04-01T05:31:40;97644.25;;;10.52;100.00
38939;BME280;24211;49.980;19.776;2023-04-01T05:34:07;97643.75;;;10.56;100.00
38939;BME280;24211;49.980;19.776;2023-04-01T05:36:35;97638.94;;;10.63;100.00
38939;BME280;24211;49.980;19.776;2023-04-01T05:39:03;97649.09;;;10.66;100.00
38939;BME280;24211;49.980;19.776;2023-04-01T05:41:30;97647.50;;;10.70;100.00
38939;BME280;24211;49.980;19.776;2023-04-01T05:43:57;97652.84;;;10.75;100.00
38939;BME280;24211;49.980;19.776;2023-04-01T05:46:40;97648.03;;;10.82;100.00
38939;BME280;24211;49.980;19.776;2023-04-01T05:49:22;97648.56;;;10.89;100.00
38939;BME280;24211;49.980;19.776;2023-04-01T05:51:50;97647.53;;;10.95;100.00
38939;BME280;24211;49.980;19.776;2023-04-01T05:54:19;97645.66;;;11.00;100.00
38939;BME280;24211;49.980;19.776;2023-04-01T05:56:47;97647.53;;;11.05;100.00
38939;BME280;24211;49.980;19.776;2023-04-01T05:59:15;97640.03;;;11.07;100.00
38939;BME280;24211;49.980;19.776;2023-04-01T06:01:42;97641.09;;;11.11;100.00
38939;BME280;24211;49.980;19.776;2023-04-01T06:04:15;97635.75;;;11.16;100.00
38939;BME280;24211;49.980;19.776;2023-04-01T06:06:45;97635.72;;;11.21;100.00
38939;BME280;24211;49.980;19.776;2023-04-01T06:09:26;97638.41;;;11.26;100.00
38939;BME280;24211;49.980;19.776;2023-04-01T06:32:45;97640.47;;;11.74;100.00
38939;BME280;24211;49.980;19.776;2023-04-01T06:38:17;97644.44;;;11.87;100.00
38939;BME280;24211;49.980;19.776;2023-04-01T06:44:19;97651.63;;;11.92;100.00
38939;BME280;24211;49.980;19.776;2023-04-01T06:47:41;97643.88;;;11.95;100.00
38939;BME280;24211;49.980;19.776;2023-04-01T06:54:16;97637.41;;;12.06;100.00
38939;BME280;24211;49.980;19.776;2023-04-01T06:57:39;97635.75;;;12.15;100.00
38939;BME280;24211;49.980;19.776;2023-04-01T07:00:35;97643.97;;;12.29;100.00
38939;BME280;24211;49.980;19.776;2023-04-01T07:03:29;97631.63;;;12.38;100.00
38939;BME280;24211;49.980;19.776;2023-04-01T07:06:10;97638.06;;;12.37;100.00
38939;BME280;24211;49.980;19.776;2023-04-01T07:08:50;97632.16;;;12.40;100.00
38939;BME280;24211;49.980;19.776;2023-04-01T07:11:34;97638.03;;;12.42;100.00
38939;BME280;24211;49.980;19.776;2023-04-01T07:14:36;97631.41;;;12.68;100.00
38939;BME280;24211;49.980;19.776;2023-04-01T07:20:27;97627.63;;;12.74;100.00
38939;BME280;24211;49.980;19.776;2023-04-01T07:23:04;97636.81;;;12.63;100.00
38939;BME280;24211;49.980;19.776;2023-04-01T07:25:58;97635.47;;;12.66;100.00
38939;BME280;24211;49.980;19.776;2023-04-01T07:28:42;97634.59;;;12.75;100.00
38939;BME280;24211;49.980;19.776;2023-04-01T07:34:21;97636.06;;;12.96;100.00
38939;BME280;24211;49.980;19.776;2023-04-01T07:37:07;97643.84;;;12.93;100.00
38939;BME280;24211;49.980;19.776;2023-04-01T07:43:02;97633.06;;;12.98;100.00
38939;BME280;24211;49.980;19.776;2023-04-01T07:46:01;97635.00;;;12.92;100.00
38939;BME280;24211;49.980;19.776;2023-04-01T07:48:41;97649.56;;;12.81;100.00
38939;BME280;24211;49.980;19.776;2023-04-01T07:54:22;97647.47;;;12.73;100.00
38939;BME280;24211;49.980;19.776;2023-04-01T07:57:22;97646.31;;;12.89;100.00
38939;BME280;24211;49.980;19.776;2023-04-01T08:00:25;97649.41;;;13.06;100.00
38939;BME280;24211;49.980;19.776;2023-04-01T08:03:48;97641.03;;;13.13;100.00
38939;BME280;24211;49.980;19.776;2023-04-01T08:09:49;97644.31;;;13.39;100.00
38939;BME280;24211;49.980;19.776;2023-04-01T08:22:04;97652.44;;;13.81;100.00
38939;BME280;24211;49.980;19.776;2023-04-01T08:24:42;97650.63;;;14.00;100.00
38939;BME280;24211;49.980;19.776;2023-04-01T08:27:55;97656.00;;;14.00;100.00
38939;BME280;24211;49.980;19.776;2023-04-01T08:33:19;97653.91;;;14.16;100.00
38939;BME280;24211;49.980;19.776;2023-04-01T08:36:07;97661.22;;;14.10;100.00
38939;BME280;24211;49.980;19.776;2023-04-01T08:41:50;97660.00;;;14.03;100.00
38939;BME280;24211;49.980;19.776;2023-04-01T09:08:38;97650.31;;;15.00;100.00
38939;BME280;24211;49.980;19.776;2023-04-01T09:11:28;97647.63;;;15.00;100.00
38939;BME280;24211;49.980;19.776;2023-04-01T09:36:10;97664.09;;;14.80;100.00
38939;BME280;24211;49.980;19.776;2023-04-01T09:45:07;97652.25;;;14.44;100.00
38939;BME280;24211;49.980;19.776;2023-04-01T09:57:22;97672.44;;;14.17;100.00
38939;BME280;24211;49.980;19.776;2023-04-01T10:06:09;97680.09;;;14.05;100.00
38939;BME280;24211;49.980;19.776;2023-04-01T10:09:23;97683.25;;;14.12;100.00
38939;BME280;24211;49.980;19.776;2023-04-01T10:27:24;97694.00;;;14.36;100.00
38939;BME280;24211;49.980;19.776;2023-04-01T10:36:43;97690.88;;;14.48;100.00
38939;BME280;24211;49.980;19.776;2023-04-01T10:52:20;97686.47;;;14.94;100.00
38939;BME280;24211;49.980;19.776;2023-04-01T10:55:48;97687.50;;;14.98;100.00
38939;BME280;24211;49.980;19.776;2023-04-01T10:59:56;97679.09;;;15.18;100.00
38939;BME280;24211;49.980;19.776;2023-04-01T11:12:31;97681.38;;;15.89;100.00
38939;BME280;24211;49.980;19.776;2023-04-01T11:24:56;97676.66;;;16.98;96.63
38939;BME280;24211;49.980;19.776;2023-04-01T11:31:00;97662.69;;;17.41;88.31
38939;BME280;24211;49.980;19.776;2023-04-01T11:33:46;97669.44;;;17.52;84.47
38939;BME280;24211;49.980;19.776;2023-04-01T11:39:42;97674.69;;;16.90;90.35
38939;BME280;24211;49.980;19.776;2023-04-01T11:43:31;97694.38;;;16.55;98.43
38939;BME280;24211;49.980;19.776;2023-04-01T11:46:31;97683.28;;;16.16;100.00
38939;BME280;24211;49.980;19.776;2023-04-01T11:53:14;97677.00;;;15.93;100.00
38939;BME280;24211;49.980;19.776;2023-04-01T12:01:44;97674.22;;;17.11;98.92
38939;BME280;24211;49.980;19.776;2023-04-01T12:04:54;97663.53;;;17.50;87.67
38939;BME280;24211;49.980;19.776;2023-04-01T12:08:15;97666.00;;;17.60;82.31
38939;BME280;24211;49.980;19.776;2023-04-01T12:17:26;97681.25;;;16.98;94.64
38939;BME280;24211;49.980;19.776;2023-04-01T12:20:20;97689.28;;;16.89;97.24
38939;BME280;24211;49.980;19.776;2023-04-01T12:58:03;97727.78;;;15.03;100.00
38939;BME280;24211;49.980;19.776;2023-04-01T13:00:46;97731.63;;;14.78;100.00
38939;BME280;24211;49.980;19.776;2023-04-01T13:12:39;97736.88;;;14.46;100.00
38939;BME280;24211;49.980;19.776;2023-04-01T13:15:40;97730.19;;;14.44;100.00
38939;BME280;24211;49.980;19.776;2023-04-01T13:24:51;97741.50;;;14.40;100.00
38939;BME280;24211;49.980;19.776;2023-04-01T13:27:46;97740.13;;;14.19;100.00
38939;BME280;24211;49.980;19.776;2023-04-01T13:34:16;97756.59;;;13.84;100.00
38939;BME280;24211;49.980;19.776;2023-04-01T13:37:11;97749.59;;;13.88;100.00
38939;BME280;24211;49.980;19.776;2023-04-01T13:43:15;97752.19;;;13.93;100.00
38939;BME280;24211;49.980;19.776;2023-04-01T13:52:27;97758.94;;;13.91;100.00
38939;BME280;24211;49.980;19.776;2023-04-01T13:55:26;97757.34;;;13.90;100.00
38939;BME280;24211;49.980;19.776;2023-04-01T14:04:50;97745.84;;;13.55;100.00
38939;BME280;24211;49.980;19.776;2023-04-01T14:08:13;97753.00;;;13.65;100.00
38939;BME280;24211;49.980;19.776;2023-04-01T14:17:17;97746.44;;;13.76;100.00
38939;BME280;24211;49.980;19.776;2023-04-01T14:23:16;97755.59;;;13.75;100.00
38939;BME280;24211;49.980;19.776;2023-04-01T14:37:31;97747.13;;;13.63;100.00
38939;BME280;24211;49.980;19.776;2023-04-01T14:49:41;97756.53;;;13.89;100.00
38939;BME280;24211;49.980;19.776;2023-04-01T14:52:40;97754.38;;;13.91;100.00
38939;BME280;24211;49.980;19.776;2023-04-01T14:55:33;97746.31;;;13.91;100.00
38939;BME280;24211;49.980;19.776;2023-04-01T15:06:39;97751.72;;;13.86;100.00
38939;BME280;24211;49.980;19.776;2023-04-01T15:12:30;97765.09;;;13.91;100.00
38939;BME280;24211;49.980;19.776;2023-04-01T15:15:31;97766.31;;;13.80;100.00
38939;BME280;24211;49.980;19.776;2023-04-01T15:21:38;97774.06;;;13.53;100.00
38939;BME280;24211;49.980;19.776;2023-04-01T15:30:15;97788.09;;;13.40;100.00
38939;BME280;24211;49.980;19.776;2023-04-01T15:35:59;97796.16;;;13.40;100.00
38939;BME280;24211;49.980;19.776;2023-04-01T15:47:37;97799.50;;;13.22;100.00
38939;BME280;24211;49.980;19.776;2023-04-01T15:50:24;97805.41;;;13.19;100.00
38939;BME280;24211;49.980;19.776;2023-04-01T16:02:37;97824.78;;;13.00;100.00
38939;BME280;24211;49.980;19.776;2023-04-01T16:08:29;97827.84;;;12.79;100.00
38939;BME280;24211;49.980;19.776;2023-04-01T16:14:18;97837.81;;;12.63;100.00
38939;BME280;24211;49.980;19.776;2023-04-01T16:20:25;97849.69;;;12.37;100.00
38939;BME280;24211;49.980;19.776;2023-04-01T16:23:04;97853.44;;;12.31;100.00
38939;BME280;24211;49.980;19.776;2023-04-01T16:25:49;97850.53;;;12.12;100.00
38939;BME280;24211;49.980;19.776;2023-04-01T16:28:55;97854.03;;;12.08;100.00
38939;BME280;24211;49.980;19.776;2023-04-01T16:31:51;97863.63;;;12.14;100.00
38939;BME280;24211;49.980;19.776;2023-04-01T16:34:47;97860.44;;;12.12;100.00
38939;BME280;24211;49.980;19.776;2023-04-01T16:37:37;97866.88;;;12.16;100.00
38939;BME280;24211;49.980;19.776;2023-04-01T16:40:26;97873.28;;;12.20;100.00
38939;BME280;24211;49.980;19.776;2023-04-01T16:43:25;97866.88;;;12.26;100.00
38939;BME280;24211;49.980;19.776;2023-04-01T16:46:20;97869.25;;;12.27;100.00
38939;BME280;24211;49.980;19.776;2023-04-01T16:55:03;97895.00;;;12.23;100.00
38939;BME280;24211;49.980;19.776;2023-04-01T16:57:55;97899.00;;;12.21;100.00
38939;BME280;24211;49.980;19.776;2023-04-01T17:00:27;97907.31;;;12.14;100.00
38939;BME280;24211;49.980;19.776;2023-04-01T17:05:52;97911.88;;;12.04;100.00
38939;BME280;24211;49.980;19.776;2023-04-01T17:11:57;97917.22;;;11.94;100.00
38939;BME280;24211;49.980;19.776;2023-04-01T17:18:09;97927.66;;;11.90;100.00
38939;BME280;24211;49.980;19.776;2023-04-01T17:32:09;97929.50;;;11.79;100.00
38939;BME280;24211;49.980;19.776;2023-04-01T17:52:47;97956.25;;;11.74;100.00
38939;BME280;24211;49.980;19.776;2023-04-01T18:04:49;97970.72;;;11.73;100.00
38939;BME280;24211;49.980;19.776;2023-04-01T18:07:58;97971.78;;;11.72;100.00
38939;BME280;24211;49.980;19.776;2023-04-01T18:10:54;97975.25;;;11.68;100.00
38939;BME280;24211;49.980;19.776;2023-04-01T18:14:17;97972.28;;;11.64;100.00
38939;BME280;24211;49.980;19.776;2023-04-01T18:20:31;97976.53;;;11.60;100.00
38939;BME280;24211;49.980;19.776;2023-04-01T18:26:01;97979.19;;;11.55;100.00
38939;BME280;24211;49.980;19.776;2023-04-01T18:31:18;97996.56;;;11.48;100.00
38939;BME280;24211;49.980;19.776;2023-04-01T18:34:17;97992.28;;;11.47;100.00
38939;BME280;24211;49.980;19.776;2023-04-01T18:37:22;97997.34;;;11.43;100.00
38939;BME280;24211;49.980;19.776;2023-04-01T18:40:34;97999.50;;;11.41;100.00
38939;BME280;24211;49.980;19.776;2023-04-01T18:43:18;98004.84;;;11.41;100.00
38939;BME280;24211;49.980;19.776;2023-04-01T18:46:22;98003.22;;;11.40;100.00
38939;BME280;24211;49.980;19.776;2023-04-01T18:49:06;98009.88;;;11.38;100.00
38939;BME280;24211;49.980;19.776;2023-04-01T18:54:33;98006.44;;;11.37;100.00
38939;BME280;24211;49.980;19.776;2023-04-01T18:57:14;98019.81;;;11.37;100.00
38939;BME280;24211;49.980;19.776;2023-04-01T19:00:03;98023.00;;;11.34;100.00
38939;BME280;24211;49.980;19.776;2023-04-01T19:02:43;98026.69;;;11.28;100.00
38939;BME280;24211;49.980;19.776;2023-04-01T19:05:42;98033.09;;;11.22;100.00
38939;BME280;24211;49.980;19.776;2023-04-01T19:08:40;98031.75;;;11.20;100.00
38939;BME280;24211;49.980;19.776;2023-04-01T19:22:43;98041.34;;;11.10;100.00
38939;BME280;24211;49.980;19.776;2023-04-01T19:25:44;98046.38;;;11.07;100.00
38939;BME280;24211;49.980;19.776;2023-04-01T19:28:39;98051.44;;;11.03;100.00
38939;BME280;24211;49.980;19.776;2023-04-01T19:34:45;98060.72;;;10.96;100.00
38939;BME280;24211;49.980;19.776;2023-04-01T19:52:31;98078.66;;;10.95;100.00
38939;BME280;24211;49.980;19.776;2023-04-01T20:00:53;98090.63;;;10.88;100.00
38939;BME280;24211;49.980;19.776;2023-04-01T20:03:34;98093.25;;;10.83;100.00
38939;BME280;24211;49.980;19.776;2023-04-01T20:15:00;98106.03;;;10.76;100.00
38939;BME280;24211;49.980;19.776;2023-04-01T20:17:45;98110.53;;;10.70;100.00
38939;BME280;24211;49.980;19.776;2023-04-01T20:25:23;98112.84;;;10.62;100.00
38939;BME280;24211;49.980;19.776;2023-04-01T20:45:21;98127.28;;;10.61;100.00
38939;BME280;24211;49.980;19.776;2023-04-01T20:50:29;98129.91;;;10.56;100.00
38939;BME280;24211;49.980;19.776;2023-04-01T20:53:16;98134.16;;;10.52;100.00
38939;BME280;24211;49.980;19.776;2023-04-01T21:07:35;98140.97;;;10.42;100.00
38939;BME280;24211;49.980;19.776;2023-04-01T21:12:57;98146.31;;;10.42;100.00
38939;BME280;24211;49.980;19.776;2023-04-01T21:15:54;98150.84;;;10.42;100.00
38939;BME280;24211;49.980;19.776;2023-04-01T21:41:55;98172.91;;;10.32;100.00
38939;BME280;24211;49.980;19.776;2023-04-01T21:44:47;98165.47;;;10.34;100.00
38939;BME280;24211;49.980;19.776;2023-04-01T22:01:20;98174.59;;;10.38;100.00
38939;BME280;24211;49.980;19.776;2023-04-01T22:06:21;98177.28;;;10.38;100.00
38939;BME280;24211;49.980;19.776;2023-04-01T22:09:00;98172.75;;;10.39;100.00
38939;BME280;24211;49.980;19.776;2023-04-01T22:20:38;98184.47;;;10.38;100.00
38939;BME280;24211;49.980;19.776;2023-04-01T22:23:26;98191.66;;;10.37;100.00
38939;BME280;24211;49.980;19.776;2023-04-01T22:29:30;98189.56;;;10.39;100.00
38939;BME280;24211;49.980;19.776;2023-04-01T22:32:07;98187.13;;;10.38;100.00
38939;BME280;24211;49.980;19.776;2023-04-01T22:35:04;98191.66;;;10.37;100.00
38939;BME280;24211;49.980;19.776;2023-04-01T22:38:03;98181.81;;;10.38;100.00
38939;BME280;24211;49.980;19.776;2023-04-01T22:40:55;98187.97;;;10.38;100.00
38939;BME280;24211;49.980;19.776;2023-04-01T22:43:45;98184.22;;;10.39;100.00
38939;BME280;24211;49.980;19.776;2023-04-01T22:49:50;98200.19;;;10.34;100.00
38939;BME280;24211;49.980;19.776;2023-04-01T22:52:40;98199.06;;;10.30;100.00
38939;BME280;24211;49.980;19.776;2023-04-01T22:55:24;98198.03;;;10.31;100.00
38939;BME280;24211;49.980;19.776;2023-04-01T22:58:05;98205.47;;;10.29;100.00
38939;BME280;24211;49.980;19.776;2023-04-01T23:00:54;98205.47;;;10.29;100.00
38939;BME280;24211;49.980;19.776;2023-04-01T23:03:31;98203.31;;;10.26;100.00
38939;BME280;24211;49.980;19.776;2023-04-01T23:06:02;98205.16;;;10.26;100.00
38939;BME280;24211;49.980;19.776;2023-04-01T23:11:43;98213.44;;;10.24;100.00
38939;BME280;24211;49.980;19.776;2023-04-01T23:22:35;98210.75;;;10.24;100.00
38939;BME280;24211;49.980;19.776;2023-04-01T23:25:16;98219.25;;;10.21;100.00
38939;BME280;24211;49.980;19.776;2023-04-01T23:33:23;98233.66;;;10.20;100.00
38939;BME280;24211;49.980;19.776;2023-04-01T23:36:02;98228.03;;;10.17;100.00
38939;BME280;24211;49.980;19.776;2023-04-01T23:38:41;98234.72;;;10.19;100.00
38939;BME280;24211;49.980;19.776;2023-04-01T23:41:32;98231.53;;;10.22;100.00